Time;durP1;ratioP1;P1;durP2;ratioP2;P2;SDS_P1;SDS_P2;PMS_P1;PMS_P2;Temp;Humidity;BMP_temperature;BMP_pressure;BME280_temperature;BME280_humidity;BME280_pressure;Samples;Min_cycle;Max_cycle;Signal;HPM_P1;HPM_P2
2024/02/18 14:15:30;;;;;;;11.48;10.57;;;;;;;;;;5166017;27;20383;-93
2024/02/18 14:17:56;;;;;;;6.72;4.60;;;;;;;;;;5133115;27;20084;-93
2024/02/18 14:20:23;;;;;;;5.68;4.28;;;;;;;;;;5131739;27;20468;-93
2024/02/18 14:22:50;;;;;;;4.00;3.50;;;;;;;;;;5131992;27;20096;-95
2024/02/18 14:25:20;;;;;;;6.32;4.53;;;;;;;;;;5134932;27;20030;-92
2024/02/18 14:27:47;;;;;;;7.93;7.22;;;;;;;;;;5133301;27;20052;-95
2024/02/18 14:30:14;;;;;;;4.93;4.50;;;;;;;;;;5131699;27;20043;-93
2024/02/18 14:32:40;;;;;;;6.22;5.10;;;;;;;;;;5131952;27;20019;-94
2024/02/18 14:35:06;;;;;;;5.57;5.07;;;;;;;;;;5131802;27;20035;-95
2024/02/18 14:37:35;;;;;;;7.53;6.82;;;;;;;;;;5131319;28;20068;-93
2024/02/18 14:40:01;;;;;;;13.55;12.65;;;;;;;;;;5131763;28;20034;-91
2024/02/18 14:42:28;;;;;;;7.00;6.40;;;;;;;;;;5134583;27;20031;-93
2024/02/18 14:44:56;;;;;;;5.85;5.25;;;;;;;;;;5144725;27;20563;-92
2024/02/18 14:47:23;;;;;;;6.88;6.18;;;;;;;;;;5152195;27;20034;-93
2024/02/18 14:49:49;;;;;;;7.57;6.03;;;;;;;;;;5151660;27;20026;-92
2024/02/18 14:52:16;;;;;;;6.32;5.82;;;;;;;;;;5152808;27;20019;-92
2024/02/18 14:54:43;;;;;;;17.77;16.65;;;;;;;;;;5143716;27;20032;-93
2024/02/18 14:57:09;;;;;;;7.57;6.75;;;;;;;;;;5132809;28;20122;-92
2024/02/18 14:59:42;;;;;;;8.20;7.50;;;;;;;;;;5135798;27;20500;-94
2024/02/18 15:02:08;;;;;;;9.98;9.18;;;;;;;;;;5154455;27;20084;-92
2024/02/18 15:04:49;;;;;;;8.23;7.53;;;;;;;;;;5139029;27;20028;-93
2024/02/18 15:07:15;;;;;;;9.55;8.68;;;;;;;;;;5110407;28;20388;-92
2024/02/18 15:09:44;;;;;;;6.32;4.53;;;;;;;;;;5110251;28;20027;-92
2024/02/18 15:12:10;;;;;;;9.20;7.03;;;;;;;;;;5145928;27;20037;-90
2024/02/18 15:14:39;;;;;;;7.43;5.35;;;;;;;;;;5150389;27;20047;-92
2024/02/18 15:17:09;;;;;;;8.23;7.47;;;;;;;;;;5149369;27;20459;-91
2024/02/18 15:19:35;;;;;;;8.27;5.53;;;;;;;;;;5141120;27;20028;-93
2024/02/18 15:22:04;;;;;;;9.45;8.55;;;;;;;;;;5130106;27;20151;-92
2024/02/18 15:24:34;;;;;;;7.10;6.47;;;;;;;;;;5130465;27;20027;-92
2024/02/18 15:27:02;;;;;;;7.22;6.60;;;;;;;;;;5116772;28;20498;-93
2024/02/18 15:29:30;;;;;;;7.28;4.68;;;;;;;;;;5117437;28;20035;-93
2024/02/18 15:31:56;;;;;;;5.70;5.07;;;;;;;;;;5123413;28;20071;-94
2024/02/18 15:34:25;;;;;;;7.68;7.07;;;;;;;;;;5177889;22;20020;-93
2024/02/18 15:36:59;;;;;;;7.78;5.78;;;;;;;;;;5074031;28;20041;-96
2024/02/18 15:39:34;;;;;;;5.72;4.55;;;;;;;;;;5059067;28;20497;-96
2024/02/18 15:42:00;;;;;;;7.85;6.03;;;;;;;;;;5060397;28;20052;-96
2024/02/18 15:44:50;;;;;;;8.00;6.25;;;;;;;;;;5059324;28;20032;-96
2024/02/18 15:50:34;;;;;;;5.57;4.97;;;;;;;;;;5076788;28;20516;-94
2024/02/18 15:53:00;;;;;;;6.13;5.45;;;;;;;;;;5059093;28;20032;-94
2024/02/18 15:55:30;;;;;;;5.97;4.63;;;;;;;;;;5058970;28;20538;-93
2024/02/18 15:57:58;;;;;;;7.28;5.68;;;;;;;;;;5058225;28;20013;-93
2024/02/18 16:00:24;;;;;;;5.63;4.35;;;;;;;;;;5043640;28;20044;-93
2024/02/18 16:02:53;;;;;;;5.53;3.83;;;;;;;;;;5055323;28;20039;-94
2024/02/18 16:05:23;;;;;;;6.07;5.20;;;;;;;;;;5042205;28;20021;-93
2024/02/18 16:07:49;;;;;;;5.43;3.90;;;;;;;;;;5038363;28;20481;-95
2024/02/18 16:10:18;;;;;;;4.88;4.10;;;;;;;;;;5038543;28;20035;-95
2024/02/18 16:12:47;;;;;;;6.85;5.35;;;;;;;;;;5039534;28;20029;-96
2024/02/18 16:15:31;;;;;;;7.35;5.35;;;;;;;;;;5039274;28;20037;-95
2024/02/18 16:18:03;;;;;;;6.95;4.93;;;;;;;;;;5039577;28;20059;-93
2024/02/18 16:20:35;;;;;;;7.32;4.50;;;;;;;;;;5038455;28;20021;-96
2024/02/18 16:23:21;;;;;;;10.65;7.43;;;;;;;;;;5038098;28;20017;-94
2024/02/18 16:25:48;;;;;;;9.52;6.43;;;;;;;;;;5046683;28;20116;-95
2024/02/18 16:28:16;;;;;;;6.25;4.38;;;;;;;;;;5055420;28;20032;-94
2024/02/18 16:30:43;;;;;;;7.80;4.47;;;;;;;;;;5037955;28;20033;-92
2024/02/18 16:33:13;;;;;;;6.13;3.70;;;;;;;;;;5043835;28;20039;-94
2024/02/18 16:35:39;;;;;;;8.25;4.93;;;;;;;;;;5057435;28;20140;-94
2024/02/18 16:38:05;;;;;;;10.95;5.43;;;;;;;;;;5056509;28;20021;-92
2024/02/18 16:40:32;;;;;;;13.02;5.22;;;;;;;;;;5057839;28;20481;-93
2024/02/18 16:43:01;;;;;;;9.52;5.07;;;;;;;;;;5040947;28;20024;-94
2024/02/18 16:45:49;;;;;;;9.05;4.57;;;;;;;;;;5040364;28;20078;-93
2024/02/18 16:48:15;;;;;;;6.78;5.40;;;;;;;;;;5057381;28;20020;-92
2024/02/18 16:51:01;;;;;;;12.93;6.25;;;;;;;;;;5057823;28;20028;-94
2024/02/18 16:53:31;;;;;;;14.00;9.13;;;;;;;;;;5055291;28;20036;-93
2024/02/18 16:56:11;;;;;;;14.07;9.88;;;;;;;;;;5074205;28;20028;-92
2024/02/18 16:58:37;;;;;;;15.00;8.52;;;;;;;;;;5048636;28;20037;-93
2024/02/18 17:01:07;;;;;;;28.67;15.25;;;;;;;;;;5040193;28;20108;-93
2024/02/18 17:03:36;;;;;;;33.15;15.75;;;;;;;;;;5037694;28;20063;-95
2024/02/18 17:06:05;;;;;;;28.15;13.38;;;;;;;;;;5037015;28;20018;-93
2024/02/18 17:08:31;;;;;;;11.02;6.95;;;;;;;;;;5037472;28;20469;-92
2024/02/18 17:10:58;;;;;;;20.23;10.52;;;;;;;;;;5040731;28;20029;-91
2024/02/18 17:13:27;;;;;;;16.67;9.50;;;;;;;;;;5052809;28;20040;-92
2024/02/18 17:15:56;;;;;;;19.17;10.48;;;;;;;;;;5057305;28;20028;-92
2024/02/18 17:18:28;;;;;;;16.92;10.05;;;;;;;;;;5056497;28;20107;-92
2024/02/18 17:20:54;;;;;;;17.83;9.88;;;;;;;;;;5048303;28;20097;-92
2024/02/18 17:23:27;;;;;;;18.70;10.18;;;;;;;;;;5057018;28;20028;-92
2024/02/18 17:25:53;;;;;;;32.85;11.32;;;;;;;;;;5057097;28;20028;-92
2024/02/18 17:28:22;;;;;;;19.73;11.48;;;;;;;;;;5056985;28;20534;-91
2024/02/18 17:30:51;;;;;;;31.35;16.52;;;;;;;;;;5056525;28;20032;-93
2024/02/18 17:33:20;;;;;;;38.45;21.02;;;;;;;;;;5042090;28;20028;-91
2024/02/18 17:35:49;;;;;;;53.75;27.60;;;;;;;;;;5073682;28;20052;-92
2024/02/18 17:38:15;;;;;;;59.53;27.75;;;;;;;;;;5071975;28;20032;-95
2024/02/18 17:41:02;;;;;;;57.20;25.40;;;;;;;;;;5056943;28;20028;-94
2024/02/18 17:43:28;;;;;;;50.60;25.10;;;;;;;;;;5074342;28;20029;-95
2024/02/18 17:46:00;;;;;;;50.70;24.92;;;;;;;;;;5058815;28;20071;-95
2024/02/18 17:48:42;;;;;;;61.05;27.63;;;;;;;;;;5059439;28;20035;-94
2024/02/18 17:51:11;;;;;;;54.45;25.77;;;;;;;;;;5057067;28;20025;-93
2024/02/18 17:53:38;;;;;;;51.08;24.27;;;;;;;;;;5021507;28;20108;-96
2024/02/18 17:56:10;;;;;;;52.17;25.92;;;;;;;;;;5013484;28;20038;-92
2024/02/18 17:58:56;;;;;;;44.95;21.05;;;;;;;;;;5013376;28;20468;-93
2024/02/18 18:01:28;;;;;;;36.83;18.88;;;;;;;;;;5023456;28;20053;-92
2024/02/18 18:03:54;;;;;;;33.33;19.33;;;;;;;;;;5032652;28;20030;-96
2024/02/18 18:06:20;;;;;;;33.25;17.08;;;;;;;;;;5034484;28;20025;-92
2024/02/18 18:08:47;;;;;;;28.52;15.48;;;;;;;;;;5030246;28;20033;-92
2024/02/18 18:11:13;;;;;;;24.70;14.30;;;;;;;;;;5013114;28;20026;-93
2024/02/18 18:13:39;;;;;;;33.42;16.33;;;;;;;;;;5017948;28;20041;-93
2024/02/18 18:16:11;;;;;;;21.73;13.48;;;;;;;;;;5031970;28;20541;-91
2024/02/18 18:18:37;;;;;;;31.63;16.63;;;;;;;;;;5028040;28;20038;-91
2024/02/18 18:21:09;;;;;;;36.15;17.23;;;;;;;;;;5031608;28;20073;-92
2024/02/18 18:23:42;;;;;;;29.17;16.15;;;;;;;;;;5032310;28;20160;-94
2024/02/18 18:26:11;;;;;;;28.88;15.52;;;;;;;;;;5066236;28;20036;-90
2024/02/18 18:28:40;;;;;;;34.97;16.63;;;;;;;;;;5050781;28;20037;-93
2024/02/18 18:31:06;;;;;;;28.55;15.27;;;;;;;;;;5056660;28;20465;-91
2024/02/18 18:33:35;;;;;;;36.60;17.33;;;;;;;;;;5056784;28;20032;-93
2024/02/18 18:36:04;;;;;;;35.10;17.85;;;;;;;;;;5029886;28;20053;-94
2024/02/18 18:38:34;;;;;;;37.90;19.70;;;;;;;;;;5020246;28;20014;-92
2024/02/18 18:41:06;;;;;;;49.25;21.10;;;;;;;;;;5044072;28;20132;-91
2024/02/18 18:43:35;;;;;;;49.95;21.95;;;;;;;;;;5027626;28;20057;-91
2024/02/18 18:48:54;;;;;;;53.85;22.80;;;;;;;;;;5034171;28;20182;-95
2024/02/18 18:51:26;;;;;;;49.00;20.80;;;;;;;;;;5033294;28;20033;-93
2024/02/18 18:53:52;;;;;;;47.20;20.02;;;;;;;;;;5032370;28;20034;-93
2024/02/18 18:56:18;;;;;;;37.63;19.40;;;;;;;;;;5049073;28;20033;-94
2024/02/18 18:58:48;;;;;;;38.05;19.08;;;;;;;;;;5049477;28;20433;-93
2024/02/18 19:01:17;;;;;;;52.30;25.13;;;;;;;;;;5051749;28;20028;-89
2024/02/18 19:03:49;;;;;;;60.90;28.67;;;;;;;;;;5053545;28;20093;-90
2024/02/18 19:06:19;;;;;;;68.43;33.35;;;;;;;;;;5054960;28;20026;-93
2024/02/18 19:08:45;;;;;;;70.90;32.88;;;;;;;;;;5053702;28;20462;-92
2024/02/18 19:11:14;;;;;;;58.10;25.77;;;;;;;;;;5037238;28;20026;-91
2024/02/18 19:13:46;;;;;;;69.50;27.40;;;;;;;;;;5016414;28;20053;-91
2024/02/18 19:16:18;;;;;;;66.82;27.38;;;;;;;;;;5075457;23;20077;-94
2024/02/18 19:18:51;;;;;;;56.25;23.05;;;;;;;;;;5052848;28;20071;-91
2024/02/18 19:21:20;;;;;;;57.28;24.52;;;;;;;;;;5052941;28;20498;-93
2024/02/18 19:23:46;;;;;;;66.85;26.27;;;;;;;;;;5052652;28;20092;-93
2024/02/18 19:26:14;;;;;;;78.40;28.35;;;;;;;;;;5052193;28;20086;-92
2024/02/18 19:28:41;;;;;;;78.35;30.92;;;;;;;;;;5052672;28;20482;-90
2024/02/18 19:31:07;;;;;;;53.60;24.52;;;;;;;;;;5040388;28;20037;-93
2024/02/18 19:33:34;;;;;;;99.57;31.13;;;;;;;;;;5015814;28;20088;-93
2024/02/18 19:36:01;;;;;;;93.05;30.67;;;;;;;;;;5034534;28;20026;-93
2024/02/18 19:38:27;;;;;;;93.05;31.58;;;;;;;;;;5052303;28;20033;-90
2024/02/18 19:40:53;;;;;;;92.43;30.40;;;;;;;;;;5050962;28;20028;-92
2024/02/18 19:43:20;;;;;;;69.05;27.92;;;;;;;;;;5052376;28;20124;-91
2024/02/18 19:45:47;;;;;;;74.57;27.65;;;;;;;;;;5037614;28;20053;-92
2024/02/18 19:48:13;;;;;;;50.38;22.45;;;;;;;;;;5036152;28;20032;-90
2024/02/18 19:50:39;;;;;;;41.15;21.85;;;;;;;;;;5035819;28;20052;-91
2024/02/18 19:53:06;;;;;;;44.88;22.80;;;;;;;;;;5052276;28;20470;-92
2024/02/18 19:55:33;;;;;;;59.22;26.90;;;;;;;;;;5051877;28;20041;-91
2024/02/18 19:57:59;;;;;;;55.40;29.10;;;;;;;;;;5051703;28;20065;-90
2024/02/18 20:00:26;;;;;;;79.13;32.85;;;;;;;;;;5051888;28;20504;-91
2024/02/18 20:02:52;;;;;;;74.88;35.97;;;;;;;;;;5051784;28;20045;-91
2024/02/18 20:05:21;;;;;;;72.63;35.22;;;;;;;;;;5051908;28;20025;-90
2024/02/18 20:07:50;;;;;;;67.75;36.83;;;;;;;;;;5051762;28;20547;-89
2024/02/18 20:10:17;;;;;;;62.60;34.78;;;;;;;;;;5052026;28;20029;-91
2024/02/18 20:12:44;;;;;;;68.65;37.92;;;;;;;;;;5051353;28;20056;-91
2024/02/18 20:15:10;;;;;;;66.03;36.70;;;;;;;;;;5051733;28;20084;-91
2024/02/18 20:17:36;;;;;;;60.15;32.83;;;;;;;;;;5051554;28;20133;-92
2024/02/18 20:20:08;;;;;;;61.00;33.20;;;;;;;;;;5051843;28;20121;-91
2024/02/18 20:22:35;;;;;;;61.35;35.50;;;;;;;;;;5052826;28;20017;-92
2024/02/18 20:25:02;;;;;;;65.35;32.88;;;;;;;;;;5061570;28;20058;-92
2024/02/18 20:27:28;;;;;;;59.47;31.05;;;;;;;;;;5024060;28;20144;-90
2024/02/18 20:29:54;;;;;;;57.78;29.58;;;;;;;;;;5020007;28;20199;-91
2024/02/18 20:32:20;;;;;;;56.00;30.20;;;;;;;;;;5015914;28;20033;-91
2024/02/18 20:34:47;;;;;;;44.05;24.85;;;;;;;;;;5015404;28;20525;-92
2024/02/18 20:37:13;;;;;;;46.05;24.95;;;;;;;;;;5051171;28;20018;-92
2024/02/18 20:39:43;;;;;;;54.08;29.33;;;;;;;;;;5029250;28;20478;-91
2024/02/18 20:42:09;;;;;;;50.65;27.85;;;;;;;;;;5016343;28;20030;-91
2024/02/18 20:44:35;;;;;;;46.65;26.02;;;;;;;;;;5017134;28;20030;-91
2024/02/18 20:47:03;;;;;;;55.33;28.83;;;;;;;;;;5016378;28;20033;-91
2024/02/18 20:49:29;;;;;;;60.70;32.60;;;;;;;;;;5030258;28;20056;-90
2024/02/18 20:51:55;;;;;;;59.78;31.85;;;;;;;;;;5037618;28;20030;-90
2024/02/18 20:54:21;;;;;;;62.00;31.67;;;;;;;;;;5053377;28;20069;-90
2024/02/18 20:56:48;;;;;;;54.38;28.02;;;;;;;;;;5056262;28;20018;-90
2024/02/18 20:59:14;;;;;;;57.20;29.30;;;;;;;;;;5043613;28;20065;-90
2024/02/18 21:01:41;;;;;;;63.08;30.60;;;;;;;;;;5051978;28;20026;-90
2024/02/18 21:04:08;;;;;;;54.47;30.17;;;;;;;;;;5052560;28;20017;-91
2024/02/18 21:07:05;;;;;;;53.40;27.88;;;;;;;;;;5054569;28;20513;-92
2024/02/18 21:12:58;;;;;;;59.15;27.80;;;;;;;;;;5046508;28;20047;-90
2024/02/18 21:15:25;;;;;;;55.80;29.55;;;;;;;;;;5052097;28;20048;-90
2024/02/18 21:20:55;;;;;;;55.00;27.08;;;;;;;;;;5039499;28;20540;-92
2024/02/18 21:23:21;;;;;;;59.28;29.38;;;;;;;;;;5049895;28;20056;-90
2024/02/18 21:25:47;;;;;;;52.30;27.17;;;;;;;;;;5050394;28;20025;-90
2024/02/18 21:28:15;;;;;;;50.85;26.05;;;;;;;;;;5050824;28;20137;-91
2024/02/18 21:30:45;;;;;;;57.72;28.25;;;;;;;;;;5049560;28;20025;-91
2024/02/18 21:33:12;;;;;;;59.85;26.88;;;;;;;;;;5015201;28;20026;-90
2024/02/18 21:35:38;;;;;;;53.05;25.77;;;;;;;;;;5014334;28;20541;-90
2024/02/18 21:38:04;;;;;;;52.38;26.48;;;;;;;;;;5013983;28;20061;-90
2024/02/18 21:40:30;;;;;;;52.45;27.38;;;;;;;;;;5013978;28;20041;-91
2024/02/18 21:42:58;;;;;;;51.35;24.42;;;;;;;;;;5015203;28;20491;-90
2024/02/18 21:45:24;;;;;;;44.20;22.42;;;;;;;;;;5050437;28;20072;-90
2024/02/18 21:47:50;;;;;;;42.80;22.42;;;;;;;;;;5050352;28;20029;-90
2024/02/18 21:50:19;;;;;;;46.15;22.50;;;;;;;;;;5050538;28;20021;-90
2024/02/18 21:52:46;;;;;;;45.58;23.02;;;;;;;;;;5034547;28;20406;-90
2024/02/18 21:55:12;;;;;;;40.30;22.35;;;;;;;;;;5049881;28;20029;-90
2024/02/18 21:57:39;;;;;;;44.13;22.92;;;;;;;;;;5050195;28;20167;-90
2024/02/18 22:00:08;;;;;;;46.08;24.80;;;;;;;;;;5050476;28;20033;-90
2024/02/18 22:02:34;;;;;;;45.35;25.30;;;;;;;;;;5050029;28;20040;-90
2024/02/18 22:05:00;;;;;;;37.72;22.08;;;;;;;;;;5050551;28;20123;-90
2024/02/18 22:07:26;;;;;;;44.97;23.50;;;;;;;;;;5032701;28;20025;-91
2024/02/18 22:09:53;;;;;;;45.25;20.95;;;;;;;;;;5034814;28;20038;-90
2024/02/18 22:12:19;;;;;;;38.83;19.67;;;;;;;;;;5065259;28;20036;-91
2024/02/18 22:14:45;;;;;;;33.13;18.08;;;;;;;;;;5052018;28;20041;-90
2024/02/18 22:17:11;;;;;;;30.88;16.90;;;;;;;;;;5050131;28;20531;-90
2024/02/18 22:19:37;;;;;;;29.70;16.17;;;;;;;;;;5050081;28;20021;-90
2024/02/18 22:22:03;;;;;;;30.60;17.90;;;;;;;;;;5049880;28;20099;-90
2024/02/18 22:24:30;;;;;;;38.00;19.90;;;;;;;;;;5050184;28;20029;-90
2024/02/18 22:26:56;;;;;;;31.80;18.20;;;;;;;;;;5049764;28;20030;-90
2024/02/18 22:29:22;;;;;;;32.72;17.33;;;;;;;;;;5049913;28;20026;-90
2024/02/18 22:31:49;;;;;;;35.35;17.85;;;;;;;;;;5049519;28;20021;-90
2024/02/18 22:34:18;;;;;;;35.25;17.83;;;;;;;;;;5049690;28;20125;-89
2024/02/18 22:36:44;;;;;;;33.33;18.10;;;;;;;;;;5035826;28;20034;-90
2024/02/18 22:39:11;;;;;;;33.47;19.75;;;;;;;;;;5017464;28;20026;-90
2024/02/18 22:41:37;;;;;;;35.70;18.58;;;;;;;;;;5017461;28;20029;-88
2024/02/18 22:44:04;;;;;;;31.73;17.55;;;;;;;;;;5017184;28;20030;-89
2024/02/18 22:46:30;;;;;;;33.35;19.50;;;;;;;;;;5017220;28;20033;-89
2024/02/18 22:48:57;;;;;;;40.83;19.75;;;;;;;;;;5018214;28;20026;-89
2024/02/18 22:51:23;;;;;;;41.17;22.42;;;;;;;;;;5016733;28;20037;-90
2024/02/18 22:53:49;;;;;;;39.72;20.33;;;;;;;;;;5032307;28;20033;-90
2024/02/18 22:56:15;;;;;;;36.20;20.17;;;;;;;;;;5053485;28;20033;-90
2024/02/18 22:58:41;;;;;;;32.42;18.70;;;;;;;;;;5053181;28;20025;-90
2024/02/18 23:01:07;;;;;;;34.65;18.52;;;;;;;;;;5053444;28;20103;-90
2024/02/18 23:03:34;;;;;;;35.08;19.20;;;;;;;;;;5053032;28;20525;-90
2024/02/18 23:06:00;;;;;;;34.38;20.00;;;;;;;;;;5053203;28;20103;-89
2024/02/18 23:08:26;;;;;;;35.83;20.65;;;;;;;;;;5052893;28;20029;-90
2024/02/18 23:10:52;;;;;;;38.05;18.50;;;;;;;;;;5052845;28;20433;-90
2024/02/18 23:13:18;;;;;;;27.50;16.67;;;;;;;;;;5053191;28;20052;-90
2024/02/18 23:15:44;;;;;;;33.58;18.60;;;;;;;;;;5054489;28;20029;-91
2024/02/18 23:18:10;;;;;;;35.78;19.35;;;;;;;;;;5039900;28;20120;-90
2024/02/18 23:20:38;;;;;;;35.28;20.00;;;;;;;;;;5039457;28;20029;-90
2024/02/18 23:23:05;;;;;;;38.28;21.30;;;;;;;;;;5034055;28;20359;-90
2024/02/18 23:25:32;;;;;;;37.65;19.40;;;;;;;;;;5020341;28;20060;-90
2024/02/18 23:27:58;;;;;;;39.20;19.10;;;;;;;;;;5019932;28;20356;-90
2024/02/18 23:30:25;;;;;;;31.13;17.20;;;;;;;;;;5019629;28;20021;-89
2024/02/18 23:32:52;;;;;;;29.52;18.17;;;;;;;;;;5019569;28;20026;-90
2024/02/18 23:35:19;;;;;;;28.27;17.00;;;;;;;;;;5019762;28;20033;-90
2024/02/18 23:37:45;;;;;;;31.45;18.30;;;;;;;;;;5019377;28;20033;-91
2024/02/18 23:40:11;;;;;;;36.20;19.83;;;;;;;;;;5023677;28;20120;-89
2024/02/18 23:42:37;;;;;;;35.13;18.83;;;;;;;;;;5039346;28;20025;-90
2024/02/18 23:45:03;;;;;;;38.13;22.75;;;;;;;;;;5039080;28;20025;-90
2024/02/18 23:47:29;;;;;;;32.25;19.55;;;;;;;;;;5038482;28;20608;-89
2024/02/18 23:49:55;;;;;;;35.15;19.45;;;;;;;;;;5039037;28;20029;-89
2024/02/18 23:52:21;;;;;;;38.08;19.70;;;;;;;;;;5041416;28;20035;-89
2024/02/18 23:54:48;;;;;;;34.25;19.90;;;;;;;;;;5052626;28;20033;-90
2024/02/18 23:57:14;;;;;;;41.33;21.55;;;;;;;;;;5044408;28;20063;-90
2024/02/18 23:59:40;;;;;;;31.85;18.05;;;;;;;;;;5039835;28;20025;-90
